createdAt,value
2018-05-04T00:00:49.416Z,76.77
2018-05-04T00:03:16.995Z,77.26
2018-05-04T00:05:43.858Z,75.44
2018-05-04T00:08:10.760Z,76.90
2018-05-04T00:10:38.356Z,77.47
2018-05-04T00:13:05.203Z,76.28
2018-05-04T00:15:32.097Z,75.81
2018-05-04T00:17:58.941Z,76.95
2018-05-04T00:20:25.784Z,76.88
2018-05-04T00:22:52.676Z,76.25
2018-05-04T00:25:25.581Z,76.59
2018-05-04T00:27:52.484Z,79.17
2018-05-04T00:30:19.387Z,77.29
2018-05-04T00:32:46.217Z,75.87
2018-05-04T00:35:13.135Z,76.76
2018-05-04T00:37:40.028Z,77.14
2018-05-04T00:40:06.875Z,75.84
2018-05-04T00:42:33.708Z,74.92
2018-05-04T00:45:00.617Z,75.84
2018-05-04T00:47:27.475Z,76.46
2018-05-04T00:49:54.333Z,76.20
2018-05-04T00:52:21.311Z,77.92
2018-05-04T00:54:48.163Z,76.34
2018-05-04T00:57:15.755Z,75.90
2018-05-04T00:59:42.725Z,78.43
2018-05-04T01:02:09.598Z,80.15
2018-05-04T01:04:36.437Z,78.88
2018-05-04T01:07:03.375Z,76.99
2018-05-04T01:09:30.232Z,77.06
2018-05-04T01:11:57.310Z,77.49
2018-05-04T01:14:24.962Z,76.87
2018-05-04T01:16:51.805Z,78.55
2018-05-04T01:19:19.406Z,78.66
2018-05-04T01:21:46.311Z,77.04
2018-05-04T01:24:13.916Z,77.34
2018-05-04T01:26:40.774Z,75.49
2018-05-04T01:29:07.657Z,76.71
2018-05-04T01:31:34.732Z,76.05
2018-05-04T01:34:02.363Z,76.62
2018-05-04T01:36:29.340Z,75.90
2018-05-04T01:38:56.963Z,76.30
2018-05-04T01:41:23.816Z,76.18
2018-05-04T01:43:50.691Z,75.52
2018-05-04T01:46:18.319Z,76.67
2018-05-04T01:48:45.181Z,78.63
2018-05-04T01:51:12.082Z,78.68
2018-05-04T01:53:38.923Z,78.00
2018-05-04T01:56:05.807Z,77.13
2018-05-04T01:58:33.035Z,76.73
2018-05-04T02:00:59.882Z,77.68
2018-05-04T02:03:26.775Z,77.39
2018-05-04T02:05:54.468Z,78.52
2018-05-04T02:08:21.317Z,77.45
2018-05-04T02:10:48.185Z,77.36
2018-05-04T02:13:15.093Z,77.83
2018-05-04T02:15:41.920Z,77.63
2018-05-04T02:18:09.506Z,76.99
2018-05-04T02:20:36.503Z,76.80
2018-05-04T02:23:03.342Z,77.25
2018-05-04T02:25:30.201Z,76.71
2018-05-04T02:27:57.080Z,76.03
2018-05-04T02:30:23.932Z,75.97
2018-05-04T02:32:50.780Z,76.84
2018-05-04T02:35:17.678Z,76.27
2018-05-04T02:37:44.892Z,76.68
2018-05-04T02:40:11.731Z,77.03
2018-05-04T02:42:38.616Z,76.63
2018-05-04T02:45:05.467Z,76.33
2018-05-04T02:47:33.071Z,76.25
2018-05-04T02:49:59.953Z,77.36
2018-05-04T02:52:26.803Z,77.22
2018-05-04T02:54:53.644Z,77.62
2018-05-04T02:57:20.533Z,77.62
2018-05-04T02:59:47.430Z,77.35
2018-05-04T03:02:14.280Z,79.35
2018-05-04T03:04:41.302Z,77.07
2018-05-04T03:07:08.155Z,76.52
2018-05-04T03:09:35.002Z,76.92
2018-05-04T03:12:02.168Z,77.21
2018-05-04T03:14:29.018Z,77.05
2018-05-04T03:16:55.855Z,77.84
2018-05-04T03:19:22.739Z,78.02
2018-05-04T03:21:49.590Z,78.06
2018-05-04T03:24:16.437Z,78.53
2018-05-04T03:26:43.348Z,77.12
2018-05-04T03:29:10.947Z,76.94
2018-05-04T03:31:37.795Z,76.76
2018-05-04T03:34:04.823Z,76.90
2018-05-04T03:36:32.428Z,76.76
2018-05-04T03:39:00.231Z,77.21
2018-05-04T03:41:27.114Z,76.49
2018-05-04T03:43:53.974Z,76.68
2018-05-04T03:46:20.839Z,76.31
2018-05-04T03:48:47.728Z,76.46
2018-05-04T03:51:14.621Z,78.46
2018-05-04T03:53:41.467Z,78.00
2018-05-04T03:56:08.376Z,77.24
2018-05-04T03:58:53.592Z,77.73
2018-05-04T04:01:38.776Z,78.16
2018-05-04T04:04:11.362Z,78.72
2018-05-04T04:06:38.307Z,78.31
2018-05-04T04:09:05.385Z,78.17
2018-05-04T04:11:32.988Z,78.92
2018-05-04T04:13:59.900Z,78.19
2018-05-04T04:16:26.808Z,78.56
2018-05-04T04:18:53.647Z,80.75
2018-05-04T04:21:20.611Z,79.24
2018-05-04T04:23:47.674Z,80.64
2018-05-04T04:26:15.271Z,80.97
2018-05-04T04:28:42.127Z,80.04
2018-05-04T04:31:09.173Z,78.99
2018-05-04T04:33:36.005Z,79.24
2018-05-04T04:36:02.951Z,78.21
2018-05-04T04:38:29.841Z,78.84
2018-05-04T04:40:56.699Z,78.86
2018-05-04T04:43:24.336Z,78.51
2018-05-04T04:45:51.252Z,78.58
2018-05-04T04:48:18.087Z,79.30
2018-05-04T04:50:44.942Z,79.12
2018-05-04T04:53:11.853Z,77.13
2018-05-04T04:55:39.460Z,77.84
2018-05-04T04:58:06.316Z,76.67
2018-05-04T05:00:33.480Z,76.10
2018-05-04T05:03:00.324Z,76.93
2018-05-04T05:05:27.259Z,75.84
2018-05-04T05:07:54.294Z,76.83
2018-05-04T05:10:21.168Z,75.39
2018-05-04T05:12:48.012Z,76.36
2018-05-04T05:15:14.919Z,76.62
2018-05-04T05:17:41.758Z,74.61
2018-05-04T05:20:08.601Z,73.49
2018-05-04T05:22:35.588Z,71.59
2018-05-04T05:25:02.495Z,71.34
2018-05-04T05:27:29.344Z,71.09
2018-05-04T05:29:56.391Z,71.04
2018-05-04T05:32:23.234Z,70.15
2018-05-04T05:34:50.076Z,67.97
2018-05-04T05:37:17.090Z,67.85
2018-05-04T05:39:44.683Z,66.77
2018-05-04T05:42:11.527Z,67.88
2018-05-04T05:44:38.427Z,65.44
2018-05-04T05:47:05.281Z,66.82
2018-05-04T05:49:32.217Z,63.45
2018-05-04T05:51:59.249Z,63.58
2018-05-04T05:54:26.758Z,64.25
2018-05-04T05:56:54.351Z,64.91
2018-05-04T05:59:21.235Z,65.11
2018-05-04T06:01:48.098Z,65.42
2018-05-04T06:04:15.683Z,65.63
2018-05-04T06:06:42.775Z,65.17
2018-05-04T06:09:10.392Z,63.81
2018-05-04T06:11:37.320Z,64.06
2018-05-04T06:14:04.943Z,62.03
2018-05-04T06:16:31.793Z,59.96
2018-05-04T06:18:58.643Z,58.31
2018-05-04T06:21:25.556Z,57.96
2018-05-04T06:23:52.393Z,61.36
2018-05-04T06:26:19.233Z,59.70
2018-05-04T06:28:46.137Z,58.03
2018-05-04T06:31:13.024Z,56.46
2018-05-04T06:33:39.874Z,54.54
2018-05-04T06:36:06.807Z,55.85
2018-05-04T06:38:33.640Z,55.20
2018-05-04T06:41:01.229Z,55.61
2018-05-04T06:43:28.103Z,53.97
2018-05-04T06:45:54.939Z,53.89
2018-05-04T06:48:21.775Z,53.92
2018-05-04T06:50:48.660Z,52.74
2018-05-04T06:53:15.584Z,56.34
2018-05-04T06:55:42.429Z,55.18
2018-05-04T06:58:09.335Z,53.24
2018-05-04T07:00:36.248Z,52.67
2018-05-04T07:03:03.110Z,58.33
2018-05-04T07:05:30.751Z,55.52
2018-05-04T07:07:57.592Z,50.82
2018-05-04T07:10:25.233Z,48.82
2018-05-04T07:12:52.201Z,52.17
2018-05-04T07:15:19.046Z,52.21
2018-05-04T07:17:45.879Z,50.60
2018-05-04T07:20:12.768Z,49.57
2018-05-04T07:22:39.624Z,49.32
2018-05-04T07:25:06.497Z,46.46
2018-05-04T07:27:33.376Z,46.48
2018-05-04T07:30:00.215Z,48.26
2018-05-04T07:32:27.059Z,48.59
2018-05-04T07:34:53.953Z,46.78
2018-05-04T07:37:20.797Z,50.57
2018-05-04T07:39:47.645Z,50.18
2018-05-04T07:42:14.555Z,49.92
2018-05-04T07:44:43.256Z,49.71
2018-05-04T07:47:10.125Z,46.78
2018-05-04T07:49:37.140Z,46.53
2018-05-04T07:52:03.960Z,43.06
2018-05-04T07:54:30.829Z,43.20
2018-05-04T07:56:58.485Z,41.70
2018-05-04T07:59:25.383Z,41.08
2018-05-04T08:01:52.285Z,50.16
2018-05-04T08:04:20.069Z,50.71
2018-05-04T08:06:46.911Z,45.12
2018-05-04T08:09:13.776Z,45.82
2018-05-04T08:11:40.839Z,44.68
2018-05-04T08:14:07.715Z,46.59
2018-05-04T08:16:34.598Z,48.97
2018-05-04T08:19:01.504Z,42.93
2018-05-04T08:21:28.341Z,45.22
2018-05-04T08:23:55.179Z,45.51
2018-05-04T08:26:22.255Z,42.67
2018-05-04T08:28:49.828Z,43.04
2018-05-04T08:31:16.693Z,45.55
2018-05-04T08:33:43.653Z,46.86
2018-05-04T08:36:11.248Z,45.44
2018-05-04T08:38:38.105Z,41.65
2018-05-04T08:41:05.759Z,43.62
2018-05-04T08:43:32.596Z,39.54
2018-05-04T08:45:59.449Z,40.59
2018-05-04T08:48:26.349Z,40.54
2018-05-04T08:50:53.254Z,38.17
2018-05-04T08:53:20.087Z,38.65
2018-05-04T08:55:47.731Z,41.42
2018-05-04T08:58:14.604Z,37.44
2018-05-04T09:00:41.498Z,37.61
2018-05-04T09:03:08.432Z,35.54
2018-05-04T09:05:35.330Z,35.21
2018-05-04T09:08:02.147Z,34.50
2018-05-04T09:10:29.037Z,35.06
2018-05-04T09:12:56.645Z,35.96
2018-05-04T09:15:23.587Z,38.16
2018-05-04T09:17:50.618Z,33.63
2018-05-04T09:20:17.470Z,32.08
2018-05-04T09:22:44.317Z,32.63
2018-05-04T09:25:11.417Z,33.43
2018-05-04T09:27:38.211Z,32.77
2018-05-04T09:30:05.072Z,35.76
2018-05-04T09:32:31.951Z,36.98
2018-05-04T09:34:59.539Z,40.10
2018-05-04T09:37:26.383Z,35.18
2018-05-04T09:39:53.280Z,33.46
2018-05-04T09:42:20.123Z,34.96
2018-05-04T09:44:46.967Z,33.98
2018-05-04T09:47:13.844Z,32.93
2018-05-04T09:49:41.427Z,33.72
2018-05-04T09:52:08.282Z,33.02
2018-05-04T09:54:35.164Z,33.17
2018-05-04T09:57:02.032Z,34.00
2018-05-04T09:59:29.629Z,31.57
2018-05-04T10:01:56.652Z,32.08
2018-05-04T10:04:24.236Z,31.90
2018-05-04T10:06:51.125Z,30.80
2018-05-04T10:09:18.029Z,31.96
2018-05-04T10:11:44.906Z,32.03
2018-05-04T10:14:11.753Z,31.12
2018-05-04T10:16:38.673Z,33.22
2018-05-04T10:19:05.519Z,32.16
2018-05-04T10:21:32.363Z,32.76
2018-05-04T10:23:59.247Z,33.92
2018-05-04T10:26:26.091Z,31.26
2018-05-04T10:28:52.941Z,30.40
2018-05-04T10:31:19.989Z,29.72
2018-05-04T10:33:46.857Z,29.53
2018-05-04T10:36:14.443Z,31.42
2018-05-04T10:38:41.366Z,30.88
2018-05-04T10:41:08.961Z,31.70
2018-05-04T10:43:35.803Z,32.33
2018-05-04T10:46:02.755Z,33.75
2018-05-04T10:48:29.638Z,33.14
2018-05-04T10:50:56.537Z,32.95
2018-05-04T10:53:23.531Z,34.76
2018-05-04T10:55:50.381Z,33.59
2018-05-04T10:58:17.282Z,32.18
2018-05-04T11:00:45.176Z,32.16
2018-05-04T11:03:12.015Z,33.51
2018-05-04T11:05:38.861Z,31.87
2018-05-04T11:08:05.757Z,31.61
2018-05-04T11:10:32.603Z,31.54
2018-05-04T11:12:59.565Z,33.29
2018-05-04T11:15:26.447Z,33.20
2018-05-04T11:17:53.304Z,33.47
2018-05-04T11:20:20.164Z,34.23
2018-05-04T11:22:47.895Z,35.17
2018-05-04T11:25:14.754Z,34.90
2018-05-04T11:27:41.609Z,34.69
2018-05-04T11:30:08.506Z,33.96
2018-05-04T11:32:35.407Z,34.53
2018-05-04T11:35:03.049Z,33.56
2018-05-04T11:37:29.947Z,34.00
2018-05-04T11:39:56.800Z,33.90
2018-05-04T11:42:23.696Z,33.61
2018-05-04T11:44:50.585Z,34.41
2018-05-04T11:47:17.440Z,34.50
2018-05-04T11:49:44.282Z,34.27
2018-05-04T11:52:11.184Z,33.01
2018-05-04T11:54:38.774Z,33.83
2018-05-04T11:57:05.633Z,33.85
2018-05-04T11:59:32.531Z,33.33
2018-05-04T12:01:59.379Z,34.21
2018-05-04T12:04:26.968Z,33.54
2018-05-04T12:06:53.892Z,32.90
2018-05-04T12:09:21.484Z,32.89
2018-05-04T12:11:48.337Z,33.41
2018-05-04T12:14:15.305Z,33.82
2018-05-04T12:16:42.275Z,33.77
2018-05-04T12:19:09.825Z,34.00
2018-05-04T12:21:37.446Z,32.60
2018-05-04T12:24:04.301Z,34.48
2018-05-04T12:26:31.143Z,31.64
2018-05-04T12:28:58.039Z,31.35
2018-05-04T12:31:24.937Z,30.62
2018-05-04T12:33:51.783Z,30.32
2018-05-04T12:36:18.672Z,30.21
2018-05-04T12:38:45.513Z,31.52
2018-05-04T12:41:12.365Z,31.54
2018-05-04T12:43:39.260Z,32.50
2018-05-04T12:46:06.104Z,34.09
2018-05-04T12:48:32.973Z,33.17
2018-05-04T12:50:59.856Z,32.34
2018-05-04T12:53:27.509Z,31.64
2018-05-04T12:55:54.301Z,31.34
2018-05-04T12:58:21.232Z,31.11
2018-05-04T13:00:48.173Z,30.09
2018-05-04T13:03:15.019Z,28.68
2018-05-04T13:05:41.913Z,28.92
2018-05-04T13:08:08.747Z,29.34
2018-05-04T13:10:35.591Z,29.42
2018-05-04T13:13:02.506Z,30.69
2018-05-04T13:15:29.463Z,30.09
2018-05-04T13:17:56.344Z,30.60
2018-05-04T13:20:23.248Z,29.69
2018-05-04T13:22:50.100Z,30.22
2018-05-04T13:25:16.939Z,30.26
2018-05-04T13:27:43.851Z,30.62
2018-05-04T13:30:11.427Z,29.82
2018-05-04T13:32:38.273Z,29.72
2018-05-04T13:35:05.248Z,31.92
2018-05-04T13:37:32.084Z,31.45
2018-05-04T13:39:58.932Z,31.28
2018-05-04T13:42:25.852Z,30.18
2018-05-04T13:44:52.697Z,31.32
2018-05-04T13:47:19.547Z,29.98
2018-05-04T13:49:46.436Z,29.22
2018-05-04T13:52:13.272Z,29.92
2018-05-04T13:54:40.103Z,30.54
2018-05-04T13:57:07.001Z,28.84
2018-05-04T13:59:33.881Z,29.50
2018-05-04T14:02:00.763Z,28.10
2018-05-04T14:04:27.649Z,28.79
2018-05-04T14:06:55.272Z,29.47
2018-05-04T14:09:22.131Z,29.34
2018-05-04T14:11:49.012Z,29.85
2018-05-04T14:14:15.857Z,30.40
2018-05-04T14:16:42.781Z,30.16
2018-05-04T14:19:10.432Z,30.72
2018-05-04T14:21:37.268Z,30.61
2018-05-04T14:24:04.111Z,30.36
2018-05-04T14:26:30.997Z,29.74
2018-05-04T14:28:57.853Z,29.18
2018-05-04T14:31:24.717Z,28.94
2018-05-04T14:33:51.963Z,29.42
2018-05-04T14:36:18.839Z,28.63
2018-05-04T14:38:45.699Z,27.71
2018-05-04T14:41:12.591Z,27.46
2018-05-04T14:43:39.428Z,28.46
2018-05-04T14:46:06.285Z,26.97
2018-05-04T14:48:33.176Z,27.56
2018-05-04T14:51:00.004Z,27.57
2018-05-04T14:53:26.861Z,28.27
2018-05-04T14:55:53.794Z,28.27
2018-05-04T14:58:20.625Z,28.45
2018-05-04T15:00:48.259Z,27.86
2018-05-04T15:03:15.145Z,27.40
2018-05-04T15:05:41.988Z,27.53
2018-05-04T15:08:08.829Z,27.55
2018-05-04T15:10:35.714Z,26.81
2018-05-04T15:13:03.288Z,27.45
2018-05-04T15:15:30.133Z,27.13
2018-05-04T15:17:57.393Z,27.50
2018-05-04T15:20:24.173Z,27.46
2018-05-04T15:22:51.022Z,28.01
2018-05-04T15:25:17.921Z,26.42
2018-05-04T15:27:44.800Z,26.73
2018-05-04T15:30:11.639Z,27.18
2018-05-04T15:32:38.545Z,26.72
2018-05-04T15:35:06.111Z,26.80
2018-05-04T15:37:32.958Z,26.50
2018-05-04T15:39:59.935Z,25.08
2018-05-04T15:42:26.713Z,26.26
2018-05-04T15:44:53.560Z,26.11
2018-05-04T15:47:20.549Z,26.07
2018-05-04T15:49:47.392Z,25.81
2018-05-04T15:52:14.227Z,26.54
2018-05-04T15:54:41.212Z,26.10
2018-05-04T15:57:08.736Z,26.33
2018-05-04T15:59:35.576Z,26.17
2018-05-04T16:02:03.039Z,27.39
2018-05-04T16:04:29.893Z,27.25
2018-05-04T16:06:56.772Z,25.77
2018-05-04T16:09:24.452Z,25.86
2018-05-04T16:11:51.296Z,25.37
2018-05-04T16:14:18.140Z,25.08
2018-05-04T16:16:45.224Z,24.97
2018-05-04T16:19:12.152Z,24.92
2018-05-04T16:21:39.732Z,24.64
2018-05-04T16:24:06.612Z,25.47
2018-05-04T16:26:33.451Z,26.14
2018-05-04T16:29:00.383Z,26.83
2018-05-04T16:31:27.196Z,27.26
2018-05-04T16:33:54.775Z,27.39
2018-05-04T16:36:21.613Z,27.49
2018-05-04T16:38:49.318Z,27.72
2018-05-04T16:41:16.851Z,28.33
2018-05-04T16:43:43.683Z,28.47
2018-05-04T16:46:17.280Z,29.35
2018-05-04T16:48:50.973Z,29.61
2018-05-04T16:51:18.607Z,29.72
2018-05-04T16:53:45.489Z,29.89
2018-05-04T16:56:13.085Z,33.17
2018-05-04T16:58:40.017Z,35.39
2018-05-04T17:01:06.925Z,37.15
2018-05-04T17:03:33.803Z,39.66
2018-05-04T17:06:00.737Z,41.03
2018-05-04T17:08:28.445Z,42.46
2018-05-04T17:10:55.985Z,42.71
2018-05-04T17:13:22.927Z,43.46
2018-05-04T17:15:49.795Z,43.16
2018-05-04T17:18:16.759Z,42.75
2018-05-04T17:20:43.795Z,42.31
2018-05-04T17:23:10.637Z,43.32
2018-05-04T17:25:37.527Z,43.63
2018-05-04T17:28:04.574Z,43.67
2018-05-04T17:30:32.171Z,43.25
2018-05-04T17:32:59.012Z,42.80
2018-05-04T17:35:25.915Z,43.24
2018-05-04T17:37:52.801Z,43.31
2018-05-04T17:40:19.763Z,44.13
2018-05-04T17:42:46.607Z,43.95
2018-05-04T17:45:13.536Z,44.21
2018-05-04T17:47:40.381Z,44.24
2018-05-04T17:50:07.272Z,43.98
2018-05-04T17:52:34.112Z,43.51
2018-05-04T17:55:01.012Z,43.57
2018-05-04T17:57:27.925Z,44.07
2018-05-04T17:59:54.778Z,44.07
2018-05-04T18:02:21.655Z,43.91
2018-05-04T18:04:48.664Z,43.76
2018-05-04T18:07:15.553Z,44.02
2018-05-04T18:09:42.535Z,44.13
2018-05-04T18:12:09.435Z,44.38
2018-05-04T18:14:36.284Z,44.57
2018-05-04T18:17:03.271Z,44.87
2018-05-04T18:19:30.164Z,45.63
2018-05-04T18:21:57.747Z,45.83
2018-05-04T18:24:24.621Z,45.77
2018-05-04T18:26:51.541Z,46.34
2018-05-04T18:29:18.385Z,46.51
2018-05-04T18:31:45.234Z,46.83
2018-05-04T18:34:12.464Z,47.11
2018-05-04T18:36:39.312Z,47.79
2018-05-04T18:39:06.185Z,48.02
2018-05-04T18:41:33.232Z,47.91
2018-05-04T18:44:00.067Z,48.06
2018-05-04T18:46:27.133Z,48.78
2018-05-04T18:48:54.758Z,48.56
2018-05-04T18:51:21.616Z,49.32
2018-05-04T18:53:48.591Z,49.13
2018-05-04T18:56:16.673Z,49.02
2018-05-04T18:58:43.556Z,49.25
2018-05-04T19:01:10.472Z,49.53
2018-05-04T19:03:37.768Z,50.02
2018-05-04T19:06:04.867Z,49.63
2018-05-04T19:08:31.739Z,50.14
2018-05-04T19:10:58.778Z,50.81
2018-05-04T19:13:25.786Z,51.25
2018-05-04T19:15:52.721Z,51.06
2018-05-04T19:18:19.628Z,51.31
2018-05-04T19:20:46.472Z,51.52
2018-05-04T19:23:13.343Z,51.77
2018-05-04T19:25:40.237Z,51.56
2018-05-04T19:28:07.377Z,52.14
2018-05-04T19:30:35.240Z,51.99
2018-05-04T19:33:02.172Z,52.03
2018-05-04T19:35:29.265Z,52.89
2018-05-04T19:37:56.123Z,52.73
2018-05-04T19:40:23.753Z,52.56
2018-05-04T19:42:50.619Z,52.85
2018-05-04T19:45:17.468Z,52.49
2018-05-04T19:47:44.345Z,52.49
2018-05-04T19:50:11.962Z,53.35
2018-05-04T19:52:38.829Z,53.01
2018-05-04T19:55:06.524Z,53.08
2018-05-04T19:57:33.366Z,52.59
2018-05-04T20:00:00.300Z,53.02
2018-05-04T20:02:27.502Z,52.45
2018-05-04T20:04:55.037Z,52.89
2018-05-04T20:07:21.989Z,52.82
2018-05-04T20:09:48.940Z,52.74
2018-05-04T20:12:16.419Z,53.16
2018-05-04T20:14:43.460Z,53.07
2018-05-04T20:17:10.363Z,52.75
2018-05-04T20:19:37.964Z,53.48
2018-05-04T20:22:04.830Z,52.96
2018-05-04T20:24:31.728Z,53.62
2018-05-04T20:26:58.572Z,54.06
2018-05-04T20:29:25.430Z,53.17
2018-05-04T20:31:52.337Z,54.23
2018-05-04T20:34:19.917Z,53.74
2018-05-04T20:36:46.748Z,53.60
2018-05-04T20:39:14.426Z,53.71
2018-05-04T20:41:41.269Z,54.07
2018-05-04T20:44:08.133Z,54.16
2018-05-04T20:46:35.035Z,54.12
2018-05-04T20:49:02.633Z,54.33
2018-05-04T20:51:29.472Z,54.50
2018-05-04T20:53:56.354Z,54.53
2018-05-04T20:56:23.204Z,54.90
2018-05-04T20:58:50.137Z,55.25
2018-05-04T21:01:17.013Z,55.11
2018-05-04T21:03:43.857Z,55.29
2018-05-04T21:06:10.702Z,55.52
2018-05-04T21:08:38.783Z,55.60
2018-05-04T21:11:06.379Z,56.02
2018-05-04T21:13:33.211Z,56.12
2018-05-04T21:16:00.122Z,56.08
2018-05-04T21:18:27.055Z,56.01
2018-05-04T21:20:53.896Z,56.16
2018-05-04T21:23:20.783Z,56.57
2018-05-04T21:25:48.370Z,56.86
2018-05-04T21:28:15.209Z,57.13
2018-05-04T21:30:42.095Z,57.26
2018-05-04T21:33:08.935Z,57.61
2018-05-04T21:35:35.796Z,57.84
2018-05-04T21:38:02.888Z,58.03
2018-05-04T21:40:29.749Z,58.39
2018-05-04T21:42:56.656Z,58.60
2018-05-04T21:45:24.276Z,58.66
2018-05-04T21:47:51.119Z,58.50
2018-05-04T21:50:17.952Z,58.68
2018-05-04T21:52:44.847Z,58.88
2018-05-04T21:55:12.454Z,59.03
2018-05-04T21:57:39.285Z,59.24
2018-05-04T22:00:06.366Z,59.13
2018-05-04T22:02:33.200Z,59.57
2018-05-04T22:05:00.043Z,59.42
2018-05-04T22:07:26.919Z,59.60
2018-05-04T22:09:53.849Z,59.86
2018-05-04T22:12:20.679Z,60.35
2018-05-04T22:14:47.655Z,60.56
2018-05-04T22:17:14.545Z,60.47
2018-05-04T22:19:41.393Z,60.56
2018-05-04T22:22:08.456Z,60.90
2018-05-04T22:24:36.032Z,61.30
2018-05-04T22:27:02.949Z,60.97
2018-05-04T22:29:29.845Z,60.93
2018-05-04T22:31:56.676Z,61.10
2018-05-04T22:34:23.524Z,62.29
2018-05-04T22:36:50.429Z,61.65
2018-05-04T22:39:17.275Z,62.45
2018-05-04T22:41:44.121Z,63.18
2018-05-04T22:44:11.159Z,63.29
2018-05-04T22:46:37.999Z,63.49
2018-05-04T22:49:04.848Z,63.13
2018-05-04T22:51:31.731Z,63.69
2018-05-04T22:53:58.580Z,63.58
2018-05-04T22:56:25.466Z,63.56
2018-05-04T22:58:53.088Z,63.85
2018-05-04T23:01:19.992Z,63.45
2018-05-04T23:03:46.820Z,64.03
2018-05-04T23:06:14.485Z,64.19
2018-05-04T23:08:41.327Z,64.19
2018-05-04T23:11:08.230Z,64.44
2018-05-04T23:13:35.222Z,64.55
2018-05-04T23:16:02.075Z,64.40
2018-05-04T23:18:28.924Z,64.16
2018-05-04T23:20:55.879Z,64.34
2018-05-04T23:23:23.423Z,64.30
2018-05-04T23:25:50.262Z,64.42
2018-05-04T23:28:17.936Z,64.10
2018-05-04T23:30:44.807Z,63.88
2018-05-04T23:33:11.741Z,64.20
2018-05-04T23:35:38.625Z,64.21
2018-05-04T23:38:05.480Z,64.27
2018-05-04T23:40:32.379Z,64.36
2018-05-04T23:42:59.260Z,64.18
2018-05-04T23:45:26.111Z,64.64
2018-05-04T23:47:57.804Z,64.78
2018-05-04T23:50:24.703Z,65.27
2018-05-04T23:52:51.562Z,65.54
2018-05-04T23:55:18.496Z,65.84
2018-05-04T23:57:45.444Z,65.52
